createdAt,value
2019-05-14T00:02:12.334Z,10.05
2019-05-14T00:04:43.980Z,13.50
2019-05-14T00:10:08.304Z,11.60
2019-05-14T00:12:44.132Z,17.80
2019-05-14T00:15:22.028Z,13.78
2019-05-14T00:17:54.671Z,12.63
2019-05-14T00:20:32.332Z,17.07
2019-05-14T00:22:57.901Z,17.48
2019-05-14T00:28:05.825Z,18.23
2019-05-14T00:30:37.093Z,14.83
2019-05-14T00:33:12.855Z,13.58
2019-05-14T00:35:46.335Z,10.78
2019-05-14T00:38:19.604Z,13.48
2019-05-14T00:40:52.201Z,12.58
2019-05-14T00:43:26.395Z,13.88
2019-05-14T00:46:02.806Z,13.55
2019-05-14T00:49:06.268Z,14.18
2019-05-14T00:51:12.691Z,11.43
2019-05-14T00:53:48.891Z,12.05
2019-05-14T00:56:21.740Z,14.90
2019-05-14T00:58:58.753Z,11.83
2019-05-14T01:01:35.866Z,12.73
2019-05-14T01:04:08.994Z,12.70
2019-05-14T01:06:44.147Z,15.95
2019-05-14T01:09:11.884Z,13.40
2019-05-14T01:11:51.125Z,12.68
2019-05-14T01:14:21.597Z,12.88
2019-05-14T01:16:53.124Z,11.68
2019-05-14T01:21:57.146Z,14.03
2019-05-14T01:24:41.751Z,12.23
2019-05-14T01:27:12.426Z,12.30
2019-05-14T01:29:51.601Z,13.62
2019-05-14T01:32:22.168Z,13.38
2019-05-14T01:34:55.754Z,11.08
2019-05-14T01:37:27.036Z,14.93
2019-05-14T01:40:14.396Z,11.60
2019-05-14T01:43:04.528Z,12.00
2019-05-14T01:45:41.641Z,10.95
2019-05-14T01:48:15.901Z,11.10
2019-05-14T01:50:52.270Z,13.62
2019-05-14T01:53:22.392Z,10.18
2019-05-14T01:55:55.325Z,10.53
2019-05-14T01:58:28.320Z,11.57
2019-05-14T02:01:02.986Z,12.88
2019-05-14T02:03:41.825Z,14.23
2019-05-14T02:06:09.254Z,11.08
2019-05-14T02:08:41.214Z,10.78
2019-05-14T02:11:12.515Z,14.65
2019-05-14T02:13:43.777Z,11.90
2019-05-14T02:16:13.536Z,11.15
2019-05-14T02:18:44.911Z,14.05
2019-05-14T02:21:22.824Z,14.25
2019-05-14T02:23:54.301Z,17.37
2019-05-14T02:26:32.052Z,19.05
2019-05-14T02:29:04.140Z,18.87
2019-05-14T02:31:39.595Z,23.83
2019-05-14T02:34:19.774Z,20.30
2019-05-14T02:36:51.245Z,24.50
2019-05-14T02:39:21.085Z,22.70
2019-05-14T02:44:40.312Z,18.80
2019-05-14T02:47:12.826Z,21.23
2019-05-14T02:49:44.300Z,18.73
2019-05-14T02:54:50.611Z,19.30
2019-05-14T02:57:24.066Z,18.57
2019-05-14T03:00:01.015Z,17.75
2019-05-14T03:02:32.445Z,16.45
2019-05-14T03:05:05.564Z,17.12
2019-05-14T03:07:39.518Z,18.65
2019-05-14T03:10:11.588Z,17.17
2019-05-14T03:12:43.268Z,15.50
2019-05-14T03:15:16.096Z,15.75
2019-05-14T03:17:51.529Z,18.42
2019-05-14T03:20:28.852Z,17.70
2019-05-14T03:23:07.995Z,18.57
2019-05-14T03:25:39.888Z,25.32
2019-05-14T03:28:11.840Z,22.35
2019-05-14T03:30:43.660Z,21.50
2019-05-14T03:33:14.089Z,23.38
2019-05-14T03:35:58.089Z,18.73
2019-05-14T03:38:30.446Z,18.60
2019-05-14T03:41:14.054Z,18.00
2019-05-14T03:43:49.427Z,18.02
2019-05-14T03:46:41.136Z,17.23
2019-05-14T03:48:59.979Z,16.12
2019-05-14T03:51:32.912Z,16.62
2019-05-14T03:54:07.704Z,15.10
2019-05-14T03:56:40.307Z,17.92
2019-05-14T03:59:19.933Z,15.75
2019-05-14T04:01:51.753Z,13.18
2019-05-14T04:04:23.384Z,15.25
2019-05-14T04:07:02.447Z,15.38
2019-05-14T04:09:35.991Z,12.28
2019-05-14T04:12:10.329Z,13.22
2019-05-14T04:14:50.194Z,13.65
2019-05-14T04:17:32.389Z,16.10
2019-05-14T04:20:00.010Z,12.07
2019-05-14T04:22:33.139Z,13.43
2019-05-14T04:25:13.617Z,21.82
2019-05-14T04:27:49.681Z,19.37
2019-05-14T04:30:28.844Z,18.95
2019-05-14T04:33:00.242Z,21.30
2019-05-14T04:35:36.008Z,18.25
2019-05-14T04:38:12.928Z,18.42
2019-05-14T04:40:49.423Z,16.80
2019-05-14T04:43:29.181Z,20.52
2019-05-14T04:46:04.315Z,19.40
2019-05-14T04:48:43.695Z,17.12
2019-05-14T04:51:20.286Z,16.60
2019-05-14T04:53:50.492Z,16.20
2019-05-14T04:56:30.462Z,16.10
2019-05-14T04:59:00.965Z,15.45
2019-05-14T05:01:43.602Z,16.55
2019-05-14T05:04:12.465Z,22.87
2019-05-14T05:06:45.560Z,13.28
2019-05-14T05:09:21.876Z,17.40
2019-05-14T05:12:02.494Z,15.05
2019-05-14T05:14:26.081Z,14.10
2019-05-14T05:17:00.220Z,18.20
2019-05-14T05:19:31.516Z,16.32
2019-05-14T05:24:39.705Z,15.28
2019-05-14T05:27:31.800Z,17.02
2019-05-14T05:30:01.409Z,18.32
2019-05-14T05:35:09.368Z,14.75
2019-05-14T05:37:48.859Z,15.80
2019-05-14T05:40:39.259Z,16.10
2019-05-14T05:43:28.480Z,15.18
2019-05-14T05:45:54.466Z,18.65
2019-05-14T05:48:29.315Z,16.73
2019-05-14T05:51:09.462Z,16.82
2019-05-14T05:53:43.588Z,16.27
2019-05-14T05:56:18.654Z,17.90
2019-05-14T05:58:51.381Z,14.78
2019-05-14T06:01:49.947Z,22.52
2019-05-14T06:04:09.354Z,16.75
2019-05-14T06:06:45.095Z,17.82
2019-05-14T06:09:28.628Z,17.05
2019-05-14T06:11:59.185Z,17.45
2019-05-14T06:14:31.157Z,13.60
2019-05-14T06:17:20.233Z,14.68
2019-05-14T06:19:56.450Z,16.12
2019-05-14T06:22:21.151Z,14.58
2019-05-14T06:24:52.598Z,16.37
2019-05-14T06:27:28.665Z,15.68
2019-05-14T06:30:02.793Z,16.97
2019-05-14T06:32:39.787Z,17.82
2019-05-14T06:35:10.311Z,16.25
2019-05-14T06:37:46.068Z,12.98
2019-05-14T06:40:19.324Z,19.17
2019-05-14T06:42:48.695Z,12.60
2019-05-14T06:45:22.939Z,17.12
2019-05-14T06:47:53.933Z,14.65
2019-05-14T06:50:28.419Z,15.60
2019-05-14T06:53:00.509Z,14.87
2019-05-14T06:55:39.395Z,15.48
2019-05-14T06:58:09.275Z,14.75
2019-05-14T07:00:59.200Z,11.22
2019-05-14T07:03:17.994Z,14.75
2019-05-14T07:05:49.331Z,12.90
2019-05-14T07:08:22.324Z,13.60
2019-05-14T07:10:54.961Z,10.53
2019-05-14T07:13:29.531Z,11.43
2019-05-14T07:15:59.547Z,12.80
2019-05-14T07:18:45.615Z,14.80
2019-05-14T07:21:08.890Z,13.72
2019-05-14T07:23:43.582Z,9.63
2019-05-14T07:26:23.625Z,12.68
2019-05-14T07:28:52.633Z,11.90
2019-05-14T07:31:25.555Z,9.50
2019-05-14T07:34:00.140Z,8.85
2019-05-14T07:36:35.551Z,8.78
2019-05-14T07:39:13.142Z,8.13
2019-05-14T07:41:48.365Z,8.68
2019-05-14T07:44:18.237Z,8.60
2019-05-14T07:46:51.940Z,11.50
2019-05-14T07:49:21.739Z,7.25
2019-05-14T07:51:56.011Z,8.45
2019-05-14T07:54:39.507Z,9.00
2019-05-14T08:00:03.706Z,7.10
2019-05-14T08:05:29.848Z,8.18
2019-05-14T08:08:07.700Z,7.30
2019-05-14T08:10:43.116Z,9.08
2019-05-14T08:13:19.117Z,6.75
2019-05-14T08:21:38.828Z,8.73
2019-05-14T08:24:15.258Z,7.25
2019-05-14T08:27:09.155Z,8.65
2019-05-14T08:29:19.274Z,6.00
2019-05-14T08:31:58.055Z,5.55
2019-05-14T08:34:30.360Z,8.65
2019-05-14T08:37:04.064Z,8.25
2019-05-14T08:39:34.382Z,7.28
2019-05-14T08:42:08.489Z,8.43
2019-05-14T08:44:42.330Z,8.38
2019-05-14T08:47:12.195Z,5.10
2019-05-14T08:52:28.732Z,8.80
2019-05-14T08:55:07.088Z,9.00
2019-05-14T08:57:32.451Z,7.42
2019-05-14T09:00:02.492Z,6.58
2019-05-14T09:04:21.997Z,6.60
2019-05-14T09:08:11.361Z,6.87
2019-05-14T09:10:44.284Z,7.50
2019-05-14T09:13:29.026Z,6.83
2019-05-14T09:16:01.948Z,5.95
2019-05-14T09:18:38.371Z,4.90
2019-05-14T09:21:43.255Z,6.95
2019-05-14T09:23:54.115Z,5.35
2019-05-14T09:26:51.083Z,5.78
2019-05-14T09:29:32.825Z,11.40
2019-05-14T09:32:05.005Z,8.10
2019-05-14T09:34:41.945Z,10.28
2019-05-14T09:37:20.787Z,7.75
2019-05-14T09:39:58.413Z,6.55
2019-05-14T09:42:32.844Z,8.18
2019-05-14T09:45:18.740Z,7.17
2019-05-14T09:51:02.675Z,5.70
2019-05-14T09:53:48.828Z,5.97
2019-05-14T09:56:19.563Z,5.90
2019-05-14T09:59:04.316Z,6.35
2019-05-14T10:01:40.953Z,6.15
2019-05-14T10:04:30.962Z,8.33
2019-05-14T10:07:03.599Z,6.45
2019-05-14T10:09:44.386Z,11.25
2019-05-14T10:12:20.003Z,7.87
2019-05-14T10:14:55.678Z,6.10
2019-05-14T10:17:49.795Z,8.35
2019-05-14T10:20:45.305Z,9.80
2019-05-14T10:23:24.550Z,7.05
2019-05-14T10:25:58.028Z,5.25
2019-05-14T10:28:28.621Z,5.00
2019-05-14T10:31:03.716Z,8.50
2019-05-14T10:33:36.595Z,7.17
2019-05-14T10:36:09.186Z,5.22
2019-05-14T10:38:46.300Z,6.37
2019-05-14T10:41:23.904Z,11.93
2019-05-14T10:44:05.533Z,6.08
2019-05-14T10:46:38.414Z,6.30
2019-05-14T10:49:23.034Z,5.00
2019-05-14T10:52:16.062Z,9.25
2019-05-14T10:54:34.629Z,7.83
2019-05-14T10:57:13.936Z,11.03
2019-05-14T10:59:44.810Z,5.62
2019-05-14T11:02:18.586Z,6.90
2019-05-14T11:04:54.406Z,6.67
2019-05-14T11:07:31.734Z,6.47
2019-05-14T11:10:42.147Z,7.35
2019-05-14T11:13:18.787Z,7.12
2019-05-14T11:15:59.288Z,5.37
2019-05-14T11:18:33.066Z,4.30
2019-05-14T11:21:18.670Z,6.20
2019-05-14T11:23:40.135Z,7.47
2019-05-14T11:26:14.388Z,8.15
2019-05-14T11:28:50.742Z,4.65
2019-05-14T11:31:26.251Z,7.15
2019-05-14T11:34:08.210Z,5.62
2019-05-14T11:36:49.620Z,6.97
2019-05-14T11:40:41.083Z,5.78
2019-05-14T11:42:12.917Z,5.67
2019-05-14T11:44:48.678Z,5.00
2019-05-14T11:47:22.495Z,6.60
2019-05-14T11:49:54.680Z,4.80
2019-05-14T11:52:28.717Z,7.22
2019-05-14T11:55:08.864Z,7.97
2019-05-14T11:57:42.086Z,8.43
2019-05-14T12:00:19.308Z,5.53
2019-05-14T12:02:58.433Z,6.25
2019-05-14T12:05:23.429Z,7.22
2019-05-14T12:07:57.604Z,4.65
2019-05-14T12:10:33.233Z,8.38
2019-05-14T15:47:52.164Z,5.50
2019-05-14T15:50:34.334Z,5.20
2019-05-14T15:53:05.703Z,5.20
2019-05-14T15:59:01.130Z,5.35
2019-05-14T16:01:28.790Z,6.00
2019-05-14T16:03:58.891Z,6.20
2019-05-14T16:06:28.694Z,6.50
2019-05-14T16:09:02.942Z,5.67
2019-05-14T16:11:34.249Z,6.85
2019-05-14T16:14:03.991Z,6.03
2019-05-14T16:16:33.967Z,5.92
2019-05-14T16:19:09.710Z,6.37
2019-05-14T16:21:41.026Z,5.40
2019-05-14T16:24:15.451Z,6.05
2019-05-14T16:27:41.383Z,5.95
2019-05-14T16:29:45.770Z,5.33
2019-05-14T16:32:32.568Z,6.42
2019-05-14T16:35:10.150Z,6.50
2019-05-14T16:37:45.576Z,6.80
2019-05-14T16:40:44.699Z,8.20
2019-05-14T16:43:19.100Z,8.75
2019-05-14T16:48:43.884Z,5.62
2019-05-14T16:51:13.717Z,5.75
2019-05-14T16:53:43.698Z,6.85
2019-05-14T16:56:13.668Z,5.12
2019-05-14T16:58:43.503Z,6.47
2019-05-14T17:01:14.720Z,6.00
2019-05-14T17:03:44.590Z,6.40
2019-05-14T17:06:18.538Z,6.60
2019-05-14T17:08:48.891Z,6.33
2019-05-14T17:11:20.181Z,4.85
2019-05-14T17:13:49.937Z,6.85
2019-05-14T17:16:19.863Z,5.25
2019-05-14T17:18:49.644Z,4.80
2019-05-14T17:21:20.765Z,4.83
2019-05-14T17:23:52.272Z,4.70
2019-05-14T17:26:24.367Z,5.17
2019-05-14T17:28:55.760Z,6.47
2019-05-14T17:31:38.860Z,4.70
2019-05-14T17:34:18.634Z,6.67
2019-05-14T17:36:53.162Z,4.62
2019-05-14T17:39:23.082Z,5.75
2019-05-14T17:44:26.080Z,8.75
2019-05-14T17:47:00.777Z,6.12
2019-05-14T17:49:30.634Z,5.40
2019-05-14T17:52:00.496Z,5.90
2019-05-14T17:54:30.379Z,4.78
2019-05-14T17:59:29.747Z,7.07
2019-05-14T18:02:08.911Z,7.22
2019-05-14T18:04:43.674Z,4.75
2019-05-14T18:07:13.349Z,8.75
2019-05-14T18:12:11.858Z,6.97
2019-05-14T18:14:41.552Z,5.45
2019-05-14T18:17:14.654Z,7.67
2019-05-14T18:19:42.752Z,5.28
2019-05-14T18:22:12.420Z,5.42
2019-05-14T18:27:13.112Z,4.95
2019-05-14T18:29:42.865Z,5.47
2019-05-14T18:32:24.010Z,6.20
2019-05-14T18:34:54.897Z,10.20
2019-05-14T18:40:21.870Z,4.45
2019-05-14T18:42:58.983Z,6.53
2019-05-14T18:45:32.343Z,4.70
2019-05-14T18:48:05.414Z,8.83
2019-05-14T18:50:36.775Z,6.12
2019-05-14T18:53:08.632Z,6.05
2019-05-14T18:55:39.313Z,12.13
2019-05-14T18:58:13.391Z,5.45
2019-05-14T19:03:20.021Z,10.65
2019-05-14T19:05:58.641Z,9.95
2019-05-14T19:08:39.255Z,8.80
2019-05-14T19:11:16.496Z,10.23
2019-05-14T19:13:48.321Z,7.35
2019-05-14T19:16:25.158Z,6.08
2019-05-14T19:18:54.899Z,6.28
2019-05-14T19:21:24.638Z,9.78
2019-05-14T19:23:54.384Z,6.30
2019-05-14T19:26:33.573Z,5.60
2019-05-14T19:28:58.116Z,6.53
2019-05-14T19:31:28.071Z,5.22
2019-05-14T19:33:59.404Z,4.75
2019-05-14T19:36:29.228Z,6.25
2019-05-14T19:38:58.940Z,9.55
2019-05-14T19:41:29.442Z,8.43
2019-05-14T19:44:04.005Z,10.43
2019-05-14T19:46:34.920Z,5.47
2019-05-14T19:49:08.168Z,7.30
2019-05-14T19:51:38.740Z,6.12
2019-05-14T19:54:08.827Z,6.53
2019-05-14T19:56:51.793Z,4.25
2019-05-14T19:59:10.528Z,10.25
2019-05-14T20:02:14.914Z,6.58
2019-05-14T20:04:44.716Z,8.58
2019-05-14T20:07:18.087Z,6.65
2019-05-14T20:09:58.795Z,6.30
2019-05-14T20:12:30.810Z,7.85
2019-05-14T20:15:02.438Z,6.72
2019-05-14T20:17:33.733Z,8.10
2019-05-14T20:20:08.625Z,9.43
2019-05-14T20:22:39.359Z,8.10
2019-05-14T20:25:09.781Z,4.60
2019-05-14T20:27:40.979Z,6.10
2019-05-14T20:30:11.363Z,8.15
2019-05-14T20:32:45.018Z,5.12
2019-05-14T20:35:29.995Z,5.75
2019-05-14T20:37:46.443Z,6.17
2019-05-14T20:40:16.392Z,9.08
2019-05-14T20:45:43.607Z,6.97
2019-05-14T20:47:58.741Z,9.70
2019-05-14T20:52:59.266Z,5.87
2019-05-14T20:55:29.653Z,7.12
2019-05-14T20:58:03.350Z,10.08
2019-05-14T21:00:33.115Z,6.90
2019-05-14T21:03:08.932Z,10.60
2019-05-14T21:05:38.889Z,6.70
2019-05-14T21:08:13.570Z,8.50
2019-05-14T21:11:49.152Z,5.87
2019-05-14T21:13:33.287Z,5.85
2019-05-14T21:16:10.911Z,7.53
2019-05-14T21:18:41.290Z,9.10
2019-05-14T21:21:12.148Z,7.92
2019-05-14T21:26:13.379Z,7.00
2019-05-14T21:32:20.484Z,10.55
2019-05-14T21:34:51.374Z,9.13
2019-05-14T21:40:11.369Z,8.50
2019-05-14T21:42:40.567Z,7.15
2019-05-14T21:45:10.819Z,8.60
2019-05-14T21:47:40.372Z,5.60
2019-05-14T21:50:11.471Z,8.63
2019-05-14T21:52:42.497Z,9.13
2019-05-14T21:55:12.373Z,10.03
2019-05-14T21:57:53.301Z,10.93
2019-05-14T22:00:41.396Z,6.28
2019-05-14T22:03:10.387Z,9.23
2019-05-14T22:05:40.312Z,8.98
2019-05-14T22:08:10.034Z,8.50
2019-05-14T22:10:40.209Z,8.75
2019-05-14T22:13:09.923Z,7.55
2019-05-14T22:15:40.670Z,4.85
2019-05-14T22:18:17.365Z,5.65
2019-05-14T22:20:41.672Z,6.92
2019-05-14T22:23:11.451Z,8.73
2019-05-14T22:25:42.152Z,5.12
2019-05-14T22:28:15.643Z,7.12
2019-05-14T22:30:43.114Z,6.65
2019-05-14T22:33:12.688Z,10.75
2019-05-14T22:35:43.413Z,7.72
2019-05-14T22:38:12.983Z,6.37
2019-05-14T22:40:42.774Z,5.67
2019-05-14T22:43:12.518Z,5.90
2019-05-14T22:45:43.507Z,6.62
2019-05-14T22:48:13.166Z,6.70
2019-05-14T22:50:42.770Z,8.28
2019-05-14T22:53:12.536Z,6.42
2019-05-14T22:55:42.193Z,7.58
2019-05-14T22:58:23.605Z,4.60
2019-05-14T23:00:47.472Z,8.75
2019-05-14T23:03:14.465Z,8.83
2019-05-14T23:05:44.284Z,6.67
2019-05-14T23:08:13.893Z,6.20
2019-05-14T23:10:45.161Z,4.90
2019-05-14T23:13:14.820Z,4.62
2019-05-14T23:15:45.373Z,6.95
2019-05-14T23:18:14.961Z,5.20
2019-05-14T23:20:45.414Z,4.87
2019-05-14T23:23:34.326Z,4.90
2019-05-14T23:26:03.983Z,6.65
2019-05-14T23:28:44.546Z,10.32
2019-05-14T23:31:05.085Z,8.40
2019-05-14T23:33:34.672Z,8.00
2019-05-14T23:36:04.659Z,10.93
2019-05-14T23:41:03.134Z,6.58
2019-05-14T23:43:32.799Z,7.65
2019-05-14T23:46:02.545Z,9.45
2019-05-14T23:48:32.215Z,5.78
2019-05-14T23:51:01.845Z,7.50
2019-05-14T23:53:31.435Z,4.22
2019-05-14T23:56:01.142Z,7.42
2019-05-14T23:58:30.785Z,8.05
